Time;durP1;ratioP1;P1;durP2;ratioP2;P2;SDS_P1;SDS_P2;PMS_P1;PMS_P2;Temp;Humidity;BMP_temperature;BMP_pressure;BME280_temperature;BME280_humidity;BME280_pressure;Samples;Min_cycle;Max_cycle;Signal;HPM_P1;HPM_P2
2022/08/15 00:01:44;;;;;;;16.60;15.00;;;;;;;;;;5093600;28;20057;-84
2022/08/15 00:04:10;;;;;;;16.48;14.88;;;;;;;;;;5093969;28;20016;-85
2022/08/15 00:06:41;;;;;;;17.02;15.32;;;;;;;;;;5093510;28;20056;-80
2022/08/15 00:09:18;;;;;;;16.60;15.00;;;;;;;;;;5079511;28;20496;-80
2022/08/15 00:11:46;;;;;;;16.30;14.60;;;;;;;;;;5073327;28;20043;-80
2022/08/15 00:14:17;;;;;;;17.63;15.70;;;;;;;;;;5073066;28;20025;-81
2022/08/15 00:16:44;;;;;;;18.10;16.30;;;;;;;;;;5073409;28;20033;-81
2022/08/15 00:19:12;;;;;;;18.20;16.30;;;;;;;;;;5073184;28;20021;-80
2022/08/15 00:21:43;;;;;;;18.95;17.05;;;;;;;;;;5073315;28;20043;-80
2022/08/15 00:24:10;;;;;;;18.05;16.30;;;;;;;;;;5076525;28;20486;-80
2022/08/15 00:26:37;;;;;;;18.90;16.90;;;;;;;;;;5091993;28;20093;-80
2022/08/15 00:29:04;;;;;;;18.45;16.75;;;;;;;;;;5093381;28;20048;-84
2022/08/15 00:31:31;;;;;;;18.55;16.65;;;;;;;;;;5093274;28;20027;-86
2022/08/15 00:33:58;;;;;;;18.88;16.65;;;;;;;;;;5091927;28;20056;-83
2022/08/15 00:36:24;;;;;;;20.20;18.20;;;;;;;;;;5092654;28;20550;-83
2022/08/15 00:38:50;;;;;;;19.20;17.23;;;;;;;;;;5091940;28;20498;-84
2022/08/15 00:44:02;;;;;;;19.95;17.92;;;;;;;;;;5087356;28;20042;-83
2022/08/15 00:46:29;;;;;;;19.55;17.65;;;;;;;;;;5072670;28;20025;-84
2022/08/15 00:48:56;;;;;;;20.10;17.45;;;;;;;;;;5072649;28;20021;-84
2022/08/15 00:51:37;;;;;;;21.13;18.90;;;;;;;;;;5071548;28;20040;-84
2022/08/15 00:54:06;;;;;;;19.85;17.83;;;;;;;;;;5072660;28;20041;-84
2022/08/15 00:56:35;;;;;;;19.70;17.60;;;;;;;;;;5072829;28;20024;-83
2022/08/15 00:59:02;;;;;;;20.27;18.30;;;;;;;;;;5072525;28;20078;-84
2022/08/15 01:01:29;;;;;;;20.23;18.10;;;;;;;;;;5072726;28;20020;-84
2022/08/15 01:03:55;;;;;;;21.33;19.17;;;;;;;;;;5072526;28;20449;-85
2022/08/15 01:06:22;;;;;;;20.40;18.30;;;;;;;;;;5073435;28;20032;-85
2022/08/15 01:08:48;;;;;;;21.80;19.60;;;;;;;;;;5071210;28;20503;-83
2022/08/15 01:11:24;;;;;;;19.77;17.77;;;;;;;;;;5072482;28;20071;-82
2022/08/15 01:13:52;;;;;;;19.40;17.48;;;;;;;;;;5072520;28;20480;-84
2022/08/15 01:16:18;;;;;;;20.98;18.60;;;;;;;;;;5072645;28;20147;-83
2022/08/15 01:18:45;;;;;;;19.88;17.88;;;;;;;;;;5072865;28;20081;-82
2022/08/15 01:21:16;;;;;;;19.50;17.48;;;;;;;;;;5092581;28;20027;-85
2022/08/15 01:23:53;;;;;;;21.27;19.08;;;;;;;;;;5092440;28;20051;-82
2022/08/15 01:26:21;;;;;;;22.33;20.08;;;;;;;;;;5090697;28;20059;-83
2022/08/15 01:28:47;;;;;;;20.38;18.42;;;;;;;;;;5092467;28;20029;-84
2022/08/15 01:31:15;;;;;;;21.55;19.35;;;;;;;;;;5092271;28;20067;-83
2022/08/15 01:33:43;;;;;;;20.92;18.83;;;;;;;;;;5080926;28;20434;-83
2022/08/15 01:36:10;;;;;;;22.50;18.85;;;;;;;;;;5072268;28;20467;-83
2022/08/15 01:38:39;;;;;;;19.60;17.60;;;;;;;;;;5072054;28;20108;-82
2022/08/15 01:41:18;;;;;;;20.48;18.27;;;;;;;;;;5072147;28;20035;-83
2022/08/15 01:43:50;;;;;;;22.50;18.83;;;;;;;;;;5072109;28;20037;-85
2022/08/15 01:46:17;;;;;;;19.30;17.27;;;;;;;;;;5070701;28;20387;-85
2022/08/15 01:48:46;;;;;;;20.60;18.40;;;;;;;;;;5076018;28;20048;-83
2022/08/15 01:51:15;;;;;;;19.77;17.77;;;;;;;;;;5075901;28;20043;-83
2022/08/15 01:53:44;;;;;;;20.33;17.20;;;;;;;;;;5089976;28;20032;-85
2022/08/15 01:56:29;;;;;;;20.88;18.77;;;;;;;;;;5094959;28;20089;-83
2022/08/15 01:59:01;;;;;;;22.13;19.85;;;;;;;;;;5094965;28;20028;-83
2022/08/15 02:01:39;;;;;;;21.77;19.58;;;;;;;;;;5095128;28;20082;-82
2022/08/15 02:04:05;;;;;;;20.55;18.40;;;;;;;;;;5096319;28;20081;-84
2022/08/15 02:06:32;;;;;;;19.85;17.88;;;;;;;;;;5096244;28;20031;-85
2022/08/15 02:09:00;;;;;;;20.25;18.08;;;;;;;;;;5095759;28;20028;-85
2022/08/15 02:11:28;;;;;;;21.05;18.85;;;;;;;;;;5096123;28;20031;-84
2022/08/15 02:13:56;;;;;;;22.45;20.15;;;;;;;;;;5077582;28;20036;-86
2022/08/15 02:16:24;;;;;;;21.27;19.17;;;;;;;;;;5075665;28;20032;-84
2022/08/15 02:18:52;;;;;;;21.10;18.95;;;;;;;;;;5075582;28;20056;-83
2022/08/15 02:21:18;;;;;;;21.08;18.98;;;;;;;;;;5075525;28;20033;-83
2022/08/15 02:23:44;;;;;;;22.35;20.05;;;;;;;;;;5075450;28;20039;-85
2022/08/15 02:26:10;;;;;;;22.48;20.17;;;;;;;;;;5075541;28;20024;-82
2022/08/15 02:28:39;;;;;;;20.65;18.45;;;;;;;;;;5075391;28;20090;-85
2022/08/15 02:31:10;;;;;;;21.67;19.48;;;;;;;;;;5075430;28;20036;-86
2022/08/15 02:33:36;;;;;;;20.55;18.38;;;;;;;;;;5076754;28;20063;-84
2022/08/15 02:36:03;;;;;;;22.42;20.13;;;;;;;;;;5095625;28;20032;-83
2022/08/15 02:38:31;;;;;;;22.13;19.92;;;;;;;;;;5095566;28;20028;-84
2022/08/15 02:40:58;;;;;;;21.98;19.80;;;;;;;;;;5095190;28;20016;-84
2022/08/15 02:43:24;;;;;;;22.30;20.05;;;;;;;;;;5095547;28;20032;-84
2022/08/15 02:45:51;;;;;;;23.15;20.60;;;;;;;;;;5095347;28;20024;-85
2022/08/15 02:48:18;;;;;;;22.38;20.05;;;;;;;;;;5095116;28;20062;-86
2022/08/15 02:50:45;;;;;;;22.55;20.17;;;;;;;;;;5095092;28;20036;-85
2022/08/15 02:53:16;;;;;;;21.63;19.33;;;;;;;;;;5075004;28;20074;-83
2022/08/15 02:55:43;;;;;;;23.10;20.60;;;;;;;;;;5074795;28;20471;-85
2022/08/15 02:58:10;;;;;;;23.20;20.67;;;;;;;;;;5074311;28;20383;-83
2022/08/15 03:00:36;;;;;;;22.98;20.67;;;;;;;;;;5073292;28;20029;-84
2022/08/15 03:03:06;;;;;;;22.30;19.85;;;;;;;;;;5074784;28;20077;-84
2022/08/15 03:05:33;;;;;;;22.85;20.45;;;;;;;;;;5074643;28;20024;-83
2022/08/15 03:07:59;;;;;;;22.73;20.38;;;;;;;;;;5073597;28;20028;-84
2022/08/15 03:10:26;;;;;;;22.27;20.08;;;;;;;;;;5074566;28;20036;-84
2022/08/15 03:12:54;;;;;;;21.70;19.40;;;;;;;;;;5093194;28;20067;-85
2022/08/15 03:15:40;;;;;;;24.38;21.70;;;;;;;;;;5093750;28;20455;-84
2022/08/15 03:18:06;;;;;;;22.42;20.13;;;;;;;;;;5094767;28;20116;-84
2022/08/15 03:20:32;;;;;;;23.13;20.55;;;;;;;;;;5094481;28;20024;-84
2022/08/15 03:22:59;;;;;;;23.27;18.85;;;;;;;;;;5094835;28;20028;-85
2022/08/15 03:25:26;;;;;;;23.30;20.90;;;;;;;;;;5094443;28;20028;-85
2022/08/15 03:27:53;;;;;;;19.92;17.92;;;;;;;;;;5093286;28;20032;-86
2022/08/15 03:30:19;;;;;;;20.42;18.35;;;;;;;;;;5093634;28;20028;-86
2022/08/15 03:32:46;;;;;;;20.35;18.35;;;;;;;;;;5074358;28;20103;-85
2022/08/15 03:35:12;;;;;;;20.77;18.77;;;;;;;;;;5074363;28;20021;-85
2022/08/15 03:37:39;;;;;;;21.77;19.60;;;;;;;;;;5074061;28;20028;-86
2022/08/15 03:40:06;;;;;;;20.52;18.52;;;;;;;;;;5072972;28;20032;-86
2022/08/15 03:42:33;;;;;;;20.60;18.60;;;;;;;;;;5073781;28;20052;-87
2022/08/15 03:45:02;;;;;;;19.58;17.58;;;;;;;;;;5072850;28;20120;-85
2022/08/15 03:47:29;;;;;;;20.88;18.00;;;;;;;;;;5073487;28;20124;-86
2022/08/15 03:49:55;;;;;;;21.35;19.13;;;;;;;;;;5072363;28;20446;-85
2022/08/15 03:52:21;;;;;;;22.73;20.08;;;;;;;;;;5092810;28;20032;-82
2022/08/15 03:54:48;;;;;;;25.33;21.23;;;;;;;;;;5094049;28;20058;-82
2022/08/15 03:57:14;;;;;;;22.90;20.50;;;;;;;;;;5094105;28;20212;-82
2022/08/15 03:59:40;;;;;;;23.55;20.80;;;;;;;;;;5093786;28;20552;-82
2022/08/15 04:02:24;;;;;;;23.02;20.73;;;;;;;;;;5094035;28;20020;-82
2022/08/15 04:04:50;;;;;;;;;;;;;;;;;;5094370;28;20166;-82
2022/08/15 04:07:16;;;;;;;21.45;19.30;;;;;;;;;;5093664;28;20381;-82
2022/08/15 04:09:43;;;;;;;20.75;18.58;;;;;;;;;;5092603;28;20092;-82
2022/08/15 04:12:09;;;;;;;22.05;18.85;;;;;;;;;;5092519;28;20497;-82
2022/08/15 04:14:35;;;;;;;22.15;19.88;;;;;;;;;;5093667;28;20496;-82
2022/08/15 04:17:03;;;;;;;23.65;20.48;;;;;;;;;;5093789;28;20107;-82
2022/08/15 04:19:29;;;;;;;24.85;21.38;;;;;;;;;;5092183;28;20020;-82
2022/08/15 04:22:02;;;;;;;23.25;20.85;;;;;;;;;;5093622;28;20368;-82
2022/08/15 04:24:28;;;;;;;31.83;28.33;;;;;;;;;;5093319;28;20379;-82
2022/08/15 04:26:54;;;;;;;19.95;18.00;;;;;;;;;;5093620;28;20528;-82
2022/08/15 04:29:23;;;;;;;20.55;18.33;;;;;;;;;;5093158;28;20024;-82
2022/08/15 04:31:49;;;;;;;19.42;17.52;;;;;;;;;;5093470;28;20143;-82
2022/08/15 04:34:15;;;;;;;18.38;16.48;;;;;;;;;;5093314;28;20098;-83
2022/08/15 04:36:41;;;;;;;19.88;17.77;;;;;;;;;;5093281;28;20032;-82
2022/08/15 04:39:07;;;;;;;21.52;17.98;;;;;;;;;;5093391;28;20374;-82
2022/08/15 04:41:33;;;;;;;20.75;18.60;;;;;;;;;;5093005;28;20052;-82
2022/08/15 04:44:00;;;;;;;18.55;16.58;;;;;;;;;;5093262;28;20483;-81
2022/08/15 04:46:26;;;;;;;20.10;16.98;;;;;;;;;;5092874;28;20111;-82
2022/08/15 04:48:52;;;;;;;18.95;16.63;;;;;;;;;;5093138;28;20027;-82
2022/08/15 04:51:18;;;;;;;20.00;17.67;;;;;;;;;;5092793;28;20024;-82
2022/08/15 04:53:46;;;;;;;22.92;19.13;;;;;;;;;;5092976;28;20088;-83
2022/08/15 04:56:12;;;;;;;19.00;17.05;;;;;;;;;;5093005;28;20028;-82
2022/08/15 04:58:38;;;;;;;19.23;17.23;;;;;;;;;;5091590;28;20020;-83
2022/08/15 05:01:08;;;;;;;19.75;17.65;;;;;;;;;;5093001;28;20161;-82
2022/08/15 05:03:35;;;;;;;19.77;17.58;;;;;;;;;;5092667;28;20059;-81
2022/08/15 05:06:02;;;;;;;19.27;17.23;;;;;;;;;;5092839;28;20031;-82
2022/08/15 05:08:30;;;;;;;20.45;17.90;;;;;;;;;;5092597;28;20074;-82
2022/08/15 05:11:00;;;;;;;18.88;16.98;;;;;;;;;;5092712;28;20036;-82
2022/08/15 05:13:28;;;;;;;19.20;16.98;;;;;;;;;;5091167;28;20030;-81
2022/08/15 05:15:54;;;;;;;17.27;15.48;;;;;;;;;;5092577;28;20044;-81
2022/08/15 05:18:21;;;;;;;18.30;16.52;;;;;;;;;;5092322;28;20024;-76
2022/08/15 05:20:47;;;;;;;18.60;16.80;;;;;;;;;;5091947;28;20494;-78
2022/08/15 05:23:15;;;;;;;18.58;16.67;;;;;;;;;;5092364;28;20024;-81
2022/08/15 05:25:42;;;;;;;20.60;18.17;;;;;;;;;;5091998;28;20051;-81
2022/08/15 05:28:09;;;;;;;20.27;18.00;;;;;;;;;;5092692;28;20035;-81
2022/08/15 05:30:36;;;;;;;17.83;16.13;;;;;;;;;;5079278;28;20472;-81
2022/08/15 05:33:08;;;;;;;18.38;16.48;;;;;;;;;;5072283;28;20032;-81
2022/08/15 05:35:35;;;;;;;25.58;20.70;;;;;;;;;;5071348;28;20508;-82
2022/08/15 05:38:04;;;;;;;17.40;15.75;;;;;;;;;;5071343;28;20067;-78
2022/08/15 05:40:44;;;;;;;18.73;16.83;;;;;;;;;;5075336;28;20190;-78
2022/08/15 05:43:18;;;;;;;17.75;16.05;;;;;;;;;;5085983;28;20130;-78
2022/08/15 05:46:03;;;;;;;18.15;16.25;;;;;;;;;;5084703;28;20045;-78
2022/08/15 05:48:31;;;;;;;20.77;18.58;;;;;;;;;;5087849;28;20051;-81
2022/08/15 05:51:06;;;;;;;19.83;17.75;;;;;;;;;;5088828;28;20158;-79
2022/08/15 05:53:51;;;;;;;18.60;16.83;;;;;;;;;;5086770;28;20029;-83
2022/08/15 05:56:22;;;;;;;18.88;17.08;;;;;;;;;;5071534;28;20029;-78
2022/08/15 05:59:06;;;;;;;18.58;16.73;;;;;;;;;;5081243;28;20064;-82
2022/08/15 06:01:38;;;;;;;18.58;16.77;;;;;;;;;;5072382;28;20032;-78
2022/08/15 06:04:06;;;;;;;19.42;17.58;;;;;;;;;;5071952;28;20032;-76
2022/08/15 06:06:35;;;;;;;20.08;16.52;;;;;;;;;;5071691;28;20073;-82
2022/08/15 06:09:21;;;;;;;19.98;18.08;;;;;;;;;;5071511;28;20361;-81
2022/08/15 06:11:47;;;;;;;20.95;19.02;;;;;;;;;;5088811;28;20447;-80
2022/08/15 06:14:25;;;;;;;21.95;19.85;;;;;;;;;;5099647;28;20355;-80
2022/08/15 06:16:53;;;;;;;18.50;16.73;;;;;;;;;;5085635;28;20379;-81
2022/08/15 06:19:25;;;;;;;17.95;16.25;;;;;;;;;;5090085;28;20031;-79
2022/08/15 06:21:52;;;;;;;21.73;19.52;;;;;;;;;;5071762;28;20024;-82
2022/08/15 06:24:21;;;;;;;26.17;23.77;;;;;;;;;;5083967;28;20399;-81
2022/08/15 06:27:07;;;;;;;91.28;52.28;;;;;;;;;;5097311;28;20393;-80
2022/08/15 06:29:52;;;;;;;48.58;30.80;;;;;;;;;;5090186;28;20024;-79
2022/08/15 06:32:25;;;;;;;57.45;40.78;;;;;;;;;;5079348;28;20082;-81
2022/08/15 06:35:10;;;;;;;50.70;27.85;;;;;;;;;;5088505;28;20116;-83
2022/08/15 06:37:36;;;;;;;43.70;24.75;;;;;;;;;;5081899;28;20019;-81
2022/08/15 06:40:14;;;;;;;37.97;22.15;;;;;;;;;;5079845;28;20017;-82
2022/08/15 06:42:42;;;;;;;38.28;20.13;;;;;;;;;;5079943;28;20072;-82
2022/08/15 06:45:11;;;;;;;42.65;22.98;;;;;;;;;;5114549;28;20030;-79
2022/08/15 06:47:37;;;;;;;20.95;14.40;;;;;;;;;;5075923;28;20076;-82
2022/08/15 06:50:23;;;;;;;18.05;14.32;;;;;;;;;;5075093;28;20048;-80
2022/08/15 06:52:53;;;;;;;12.07;10.85;;;;;;;;;;5092115;28;20031;-81
2022/08/15 06:55:20;;;;;;;13.05;11.73;;;;;;;;;;5085036;28;20082;-78
2022/08/15 06:57:51;;;;;;;13.77;12.18;;;;;;;;;;5074545;28;20112;-82
2022/08/15 07:00:17;;;;;;;16.50;12.18;;;;;;;;;;5086367;28;20052;-81
2022/08/15 07:02:52;;;;;;;13.88;12.48;;;;;;;;;;5083251;28;20031;-82
2022/08/15 07:05:28;;;;;;;18.55;15.15;;;;;;;;;;5082348;28;20081;-81
2022/08/15 07:08:17;;;;;;;13.05;11.23;;;;;;;;;;5089088;28;20124;-81
2022/08/15 07:10:48;;;;;;;14.77;12.50;;;;;;;;;;5068631;28;20128;-86
2022/08/15 07:13:18;;;;;;;125.00;52.60;;;;;;;;;;5075677;28;20071;-81
2022/08/15 07:15:47;;;;;;;118.70;52.30;;;;;;;;;;5074082;28;20104;-80
2022/08/15 07:18:34;;;;;;;96.03;43.60;;;;;;;;;;5077078;28;20108;-84
2022/08/15 07:21:05;;;;;;;69.47;32.47;;;;;;;;;;5075459;28;20032;-81
2022/08/15 07:23:32;;;;;;;12.00;10.85;;;;;;;;;;5082787;28;20020;-84
2022/08/15 07:26:01;;;;;;;17.48;14.20;;;;;;;;;;5079940;28;20487;-85
2022/08/15 07:28:28;;;;;;;119.20;50.55;;;;;;;;;;5074213;28;20082;-82
2022/08/15 07:30:57;;;;;;;148.55;59.42;;;;;;;;;;5081851;28;20035;-80
2022/08/15 07:33:31;;;;;;;210.43;82.00;;;;;;;;;;5081584;28;20032;-80
2022/08/15 07:35:57;;;;;;;;;;;;;;;;;;5085447;28;20035;-80
2022/08/15 07:38:28;;;;;;;61.33;27.50;;;;;;;;;;5084800;28;19908;-82
2022/08/15 07:41:11;;;;;;;97.47;41.67;;;;;;;;;;5100857;28;20032;-85
2022/08/15 07:43:38;;;;;;;74.93;35.47;;;;;;;;;;5094494;28;20032;-80
2022/08/15 07:46:10;;;;;;;15.40;11.52;;;;;;;;;;5097832;28;20101;-82
2022/08/15 07:48:38;;;;;;;24.88;14.98;;;;;;;;;;5096571;28;20517;-83
2022/08/15 07:51:16;;;;;;;15.45;11.50;;;;;;;;;;5103111;28;20051;-79
2022/08/15 07:53:51;;;;;;;22.42;13.73;;;;;;;;;;5095362;28;20027;-83
2022/08/15 07:56:17;;;;;;;16.33;11.90;;;;;;;;;;5099357;28;20027;-84
2022/08/15 07:58:44;;;;;;;15.00;11.63;;;;;;;;;;5099653;28;20383;-83
2022/08/15 08:01:12;;;;;;;10.13;9.05;;;;;;;;;;5080347;28;20035;-84
2022/08/15 08:03:40;;;;;;;12.05;10.77;;;;;;;;;;5085318;28;20033;-82
2022/08/15 08:06:17;;;;;;;12.15;10.50;;;;;;;;;;5077445;28;20051;-83
2022/08/15 08:08:43;;;;;;;11.13;9.70;;;;;;;;;;5086849;28;20032;-80
2022/08/15 08:11:24;;;;;;;10.45;9.45;;;;;;;;;;5084482;28;20036;-79
2022/08/15 08:13:58;;;;;;;13.07;10.88;;;;;;;;;;5099326;28;20039;-80
2022/08/15 08:16:28;;;;;;;12.35;11.15;;;;;;;;;;5097685;28;20044;-81
2022/08/15 08:19:02;;;;;;;11.45;10.20;;;;;;;;;;5099248;28;20054;-80
2022/08/15 08:21:37;;;;;;;12.90;10.65;;;;;;;;;;5100990;28;20093;-79
2022/08/15 08:24:10;;;;;;;12.30;10.90;;;;;;;;;;5102441;28;20106;-79
2022/08/15 08:26:36;;;;;;;12.63;11.43;;;;;;;;;;5095824;28;20148;-80
2022/08/15 08:29:06;;;;;;;12.50;11.20;;;;;;;;;;5103633;28;20039;-82
2022/08/15 08:31:51;;;;;;;11.23;10.23;;;;;;;;;;5098301;28;20086;-80
2022/08/15 08:34:23;;;;;;;11.20;10.10;;;;;;;;;;5092766;28;20371;-80
2022/08/15 08:36:55;;;;;;;11.90;10.90;;;;;;;;;;5083862;28;20035;-82
2022/08/15 08:39:36;;;;;;;11.93;10.73;;;;;;;;;;5073654;28;20032;-79
2022/08/15 08:42:02;;;;;;;13.18;11.50;;;;;;;;;;5071265;28;20055;-84
2022/08/15 08:44:40;;;;;;;11.48;10.38;;;;;;;;;;5082141;28;20028;-83
2022/08/15 08:47:16;;;;;;;12.10;10.88;;;;;;;;;;5081885;28;20067;-81
2022/08/15 08:50:01;;;;;;;11.32;10.23;;;;;;;;;;5089716;28;20065;-84
2022/08/15 08:52:35;;;;;;;11.52;10.38;;;;;;;;;;5085233;28;20064;-82
2022/08/15 08:55:09;;;;;;;11.32;10.23;;;;;;;;;;5084935;28;20114;-81
2022/08/15 08:57:36;;;;;;;;;;;;;;;;;;5101314;28;20540;-81
2022/08/15 09:00:08;;;;;;;11.43;10.30;;;;;;;;;;5091869;28;19908;-83
2022/08/15 09:02:52;;;;;;;12.65;11.52;;;;;;;;;;5094709;28;20039;-83
2022/08/15 09:05:21;;;;;;;11.15;10.13;;;;;;;;;;5100584;28;20034;-81
2022/08/15 09:07:51;;;;;;;11.50;10.43;;;;;;;;;;5098662;28;20363;-83
2022/08/15 09:10:22;;;;;;;10.80;9.80;;;;;;;;;;5090579;28;20035;-84
2022/08/15 09:15:35;;;;;;;12.15;11.05;;;;;;;;;;5099783;28;20035;-81
2022/08/15 09:18:07;;;;;;;12.27;11.00;;;;;;;;;;5099893;28;20390;-82
2022/08/15 09:20:35;;;;;;;12.10;10.85;;;;;;;;;;5099573;28;20863;-84
2022/08/15 09:23:03;;;;;;;12.65;11.43;;;;;;;;;;5101878;28;20026;-82
2022/08/15 09:25:32;;;;;;;11.27;10.18;;;;;;;;;;5092783;28;20031;-84
2022/08/15 09:28:11;;;;;;;11.98;10.25;;;;;;;;;;5098327;28;20042;-82
2022/08/15 09:30:38;;;;;;;12.98;11.68;;;;;;;;;;5090899;28;20034;-81
2022/08/15 09:33:31;;;;;;;12.25;11.07;;;;;;;;;;5101071;28;20036;-82
2022/08/15 09:36:15;;;;;;;13.18;11.18;;;;;;;;;;5066705;28;20032;-82
2022/08/15 09:38:42;;;;;;;11.45;10.35;;;;;;;;;;5088659;28;20483;-85
2022/08/15 09:41:20;;;;;;;12.93;11.38;;;;;;;;;;5093981;28;20396;-82
2022/08/15 09:43:55;;;;;;;15.00;13.73;;;;;;;;;;5089407;28;20019;-83
2022/08/15 09:46:40;;;;;;;13.18;12.05;;;;;;;;;;5091202;28;20016;-80
2022/08/15 09:49:12;;;;;;;12.68;11.57;;;;;;;;;;5086067;28;20329;-82
2022/08/15 09:51:48;;;;;;;13.85;12.60;;;;;;;;;;5091341;28;20568;-81
2022/08/15 09:54:23;;;;;;;12.48;11.38;;;;;;;;;;5088578;28;20027;-75
2022/08/15 09:56:52;;;;;;;12.35;11.25;;;;;;;;;;5086150;28;20032;-86
2022/08/15 09:59:19;;;;;;;12.68;11.52;;;;;;;;;;5093948;28;20032;-81
2022/08/15 10:02:05;;;;;;;13.10;11.90;;;;;;;;;;5077540;28;20016;-82
2022/08/15 10:04:55;;;;;;;12.50;11.45;;;;;;;;;;5086951;28;20115;-84
2022/08/15 10:07:21;;;;;;;13.27;12.15;;;;;;;;;;5088286;28;20482;-82
2022/08/15 10:10:06;;;;;;;12.75;11.65;;;;;;;;;;5096909;28;20036;-79
2022/08/15 10:12:37;;;;;;;12.90;11.68;;;;;;;;;;5103835;28;20504;-89
2022/08/15 10:15:08;;;;;;;12.10;10.93;;;;;;;;;;5082312;28;20031;-82
2022/08/15 10:17:37;;;;;;;12.35;11.25;;;;;;;;;;5103181;28;20648;-82
2022/08/15 10:20:18;;;;;;;13.38;11.98;;;;;;;;;;5106468;28;20051;-82
2022/08/15 10:22:53;;;;;;;11.43;10.38;;;;;;;;;;5092543;28;20036;-82
2022/08/15 10:25:37;;;;;;;12.40;11.30;;;;;;;;;;5082185;28;20055;-84
2022/08/15 10:28:06;;;;;;;12.23;10.82;;;;;;;;;;5088447;28;20020;-82
2022/08/15 10:30:38;;;;;;;12.40;11.38;;;;;;;;;;5083841;28;20053;-85
2022/08/15 10:33:23;;;;;;;11.63;10.20;;;;;;;;;;5092734;28;20040;-87
2022/08/15 10:35:51;;;;;;;11.77;10.60;;;;;;;;;;5095802;28;20467;-85
2022/08/15 10:38:23;;;;;;;11.63;10.43;;;;;;;;;;5095885;28;20039;-80
2022/08/15 10:41:08;;;;;;;10.90;9.80;;;;;;;;;;5080715;28;20123;-85
2022/08/15 10:43:49;;;;;;;11.27;10.18;;;;;;;;;;5097328;28;20036;-83
2022/08/15 10:46:21;;;;;;;16.38;14.95;;;;;;;;;;5084887;28;20025;-78
2022/08/15 10:48:58;;;;;;;12.93;11.63;;;;;;;;;;5080133;28;20086;-84
2022/08/15 10:51:30;;;;;;;13.15;11.88;;;;;;;;;;5092748;28;20024;-79
2022/08/15 10:54:16;;;;;;;10.73;9.80;;;;;;;;;;5094070;28;20081;-78
2022/08/15 10:56:42;;;;;;;11.18;10.02;;;;;;;;;;5099092;28;20020;-82
2022/08/15 10:59:27;;;;;;;10.90;9.90;;;;;;;;;;5104161;28;20542;-86
2022/08/15 11:02:13;;;;;;;11.55;10.45;;;;;;;;;;5097067;28;20056;-82
2022/08/15 11:04:39;;;;;;;10.40;9.43;;;;;;;;;;5088144;28;20040;-75
2022/08/15 11:07:19;;;;;;;10.45;9.38;;;;;;;;;;5103234;28;20086;-81
2022/08/15 11:09:54;;;;;;;9.13;8.10;;;;;;;;;;5103440;28;20046;-82
2022/08/15 11:12:21;;;;;;;10.27;9.10;;;;;;;;;;5101594;28;20103;-87
2022/08/15 11:14:52;;;;;;;9.07;8.20;;;;;;;;;;5101691;28;20106;-85
2022/08/15 11:17:22;;;;;;;9.38;8.50;;;;;;;;;;5097935;28;20475;-83
2022/08/15 11:19:49;;;;;;;9.73;8.80;;;;;;;;;;5098945;28;20028;-85
2022/08/15 11:22:28;;;;;;;9.18;8.25;;;;;;;;;;5093160;28;20024;-87
2022/08/15 11:25:00;;;;;;;8.90;7.85;;;;;;;;;;5092372;28;21541;-86
2022/08/15 11:27:26;;;;;;;9.40;8.52;;;;;;;;;;5077674;28;20026;-82
2022/08/15 11:29:55;;;;;;;8.65;7.72;;;;;;;;;;5089427;28;20047;-84
2022/08/15 11:32:24;;;;;;;10.93;8.25;;;;;;;;;;5094426;28;20041;-84
2022/08/15 11:34:51;;;;;;;9.13;8.32;;;;;;;;;;5097079;28;20093;-71
2022/08/15 11:37:19;;;;;;;8.57;7.78;;;;;;;;;;5081642;28;20020;-82
2022/08/15 11:40:04;;;;;;;8.80;7.93;;;;;;;;;;5085853;28;20470;-84
2022/08/15 11:42:34;;;;;;;7.10;6.50;;;;;;;;;;5082597;28;20503;-82
2022/08/15 11:45:04;;;;;;;7.80;7.00;;;;;;;;;;5092768;28;20379;-85
2022/08/15 11:47:31;;;;;;;8.18;6.93;;;;;;;;;;5102763;28;20039;-80
2022/08/15 11:50:20;;;;;;;8.15;7.45;;;;;;;;;;5102734;28;20042;-82
2022/08/15 11:52:50;;;;;;;8.48;7.50;;;;;;;;;;5093817;28;20048;-80
2022/08/15 11:55:35;;;;;;;10.40;8.45;;;;;;;;;;5098064;28;20015;-83
2022/08/15 11:58:01;;;;;;;9.85;8.95;;;;;;;;;;5093672;28;20028;-83
2022/08/15 12:00:39;;;;;;;9.65;8.80;;;;;;;;;;5084003;28;20035;-81
2022/08/15 12:03:24;;;;;;;9.75;8.95;;;;;;;;;;5089324;28;20070;-83
2022/08/15 12:05:52;;;;;;;7.90;7.20;;;;;;;;;;5089320;28;20035;-84
2022/08/15 12:08:23;;;;;;;9.48;8.57;;;;;;;;;;5096107;28;20107;-81
2022/08/15 12:10:50;;;;;;;9.38;8.48;;;;;;;;;;5102973;28;20035;-81
2022/08/15 12:13:18;;;;;;;9.57;8.65;;;;;;;;;;5108691;28;20020;-83
2022/08/15 12:15:45;;;;;;;10.55;9.45;;;;;;;;;;5097171;28;20057;-82
2022/08/15 12:18:22;;;;;;;8.95;8.07;;;;;;;;;;5099589;28;20420;-80
2022/08/15 12:21:01;;;;;;;9.40;8.55;;;;;;;;;;5101773;28;20028;-84
2022/08/15 12:23:33;;;;;;;12.05;10.90;;;;;;;;;;5097480;28;20024;-83
2022/08/15 12:26:00;;;;;;;8.73;7.93;;;;;;;;;;5100900;28;20036;-82
2022/08/15 12:28:27;;;;;;;9.65;8.65;;;;;;;;;;5091669;28;20028;-81
2022/08/15 12:30:58;;;;;;;9.45;7.97;;;;;;;;;;5096948;28;20044;-85
2022/08/15 12:33:24;;;;;;;13.25;12.15;;;;;;;;;;5083826;28;20108;-83
2022/08/15 12:35:51;;;;;;;13.07;11.98;;;;;;;;;;5097115;28;20027;-79
2022/08/15 12:38:18;;;;;;;10.68;9.70;;;;;;;;;;5092981;28;20086;-82
2022/08/15 12:40:44;;;;;;;17.63;15.90;;;;;;;;;;5097830;28;20031;-81
2022/08/15 12:43:10;;;;;;;10.95;10.00;;;;;;;;;;5101223;28;20479;-85
2022/08/15 12:45:36;;;;;;;9.05;8.15;;;;;;;;;;5094858;28;20115;-84
2022/08/15 12:48:05;;;;;;;9.57;8.68;;;;;;;;;;5090527;28;20044;-80
2022/08/15 12:50:31;;;;;;;11.02;9.93;;;;;;;;;;5077402;28;20044;-83
2022/08/15 12:52:58;;;;;;;20.55;18.83;;;;;;;;;;5096162;28;20074;-80
2022/08/15 12:55:24;;;;;;;14.38;13.13;;;;;;;;;;5089681;28;20032;-81
2022/08/15 12:57:51;;;;;;;9.57;8.65;;;;;;;;;;5103023;28;20106;-80
2022/08/15 13:00:17;;;;;;;10.00;9.07;;;;;;;;;;5092281;28;20487;-84
2022/08/15 13:02:44;;;;;;;10.65;9.75;;;;;;;;;;5092337;28;20031;-80
2022/08/15 13:05:15;;;;;;;9.40;8.60;;;;;;;;;;5086923;28;20031;-81
2022/08/15 13:07:42;;;;;;;9.30;8.40;;;;;;;;;;5074460;28;20501;-80
2022/08/15 13:10:08;;;;;;;9.30;8.15;;;;;;;;;;5072296;28;20052;-84
2022/08/15 13:12:34;;;;;;;9.48;8.15;;;;;;;;;;5072005;28;20040;-84
2022/08/15 13:15:00;;;;;;;9.98;8.20;;;;;;;;;;5072242;28;20032;-83
2022/08/15 13:17:26;;;;;;;8.73;7.93;;;;;;;;;;5081905;28;20546;-87
2022/08/15 13:25:22;;;;;;;9.10;8.35;;;;;;;;;;5083703;28;20131;-85
2022/08/15 13:27:49;;;;;;;8.15;7.50;;;;;;;;;;5091222;28;20513;-85
2022/08/15 13:30:16;;;;;;;8.50;7.65;;;;;;;;;;5085815;28;20122;-87
2022/08/15 13:32:42;;;;;;;8.77;7.97;;;;;;;;;;5089098;28;20027;-85
2022/08/15 13:35:10;;;;;;;8.40;7.45;;;;;;;;;;5085988;28;20028;-85
2022/08/15 13:37:37;;;;;;;8.73;7.93;;;;;;;;;;5080650;28;20511;-84
2022/08/15 13:40:04;;;;;;;8.95;8.23;;;;;;;;;;5072147;28;20052;-86
2022/08/15 13:42:31;;;;;;;8.55;7.75;;;;;;;;;;5081537;28;20040;-86
2022/08/15 13:44:57;;;;;;;9.55;8.75;;;;;;;;;;5087277;28;20115;-84
2022/08/15 13:47:25;;;;;;;8.93;7.40;;;;;;;;;;5086724;28;20457;-85
2022/08/15 13:49:52;;;;;;;7.82;7.13;;;;;;;;;;5094807;28;20379;-82
2022/08/15 13:52:18;;;;;;;8.20;7.40;;;;;;;;;;5078413;28;20032;-84
2022/08/15 13:54:44;;;;;;;7.65;7.05;;;;;;;;;;5078502;28;20060;-84
2022/08/15 13:57:11;;;;;;;8.50;7.80;;;;;;;;;;5082012;28;20039;-83
2022/08/15 13:59:37;;;;;;;7.88;7.28;;;;;;;;;;5093634;28;20462;-81
2022/08/15 14:02:04;;;;;;;8.23;7.25;;;;;;;;;;5108063;28;20023;-82
2022/08/15 14:04:38;;;;;;;7.90;7.20;;;;;;;;;;5110996;28;20135;-87
2022/08/15 14:07:05;;;;;;;9.32;8.48;;;;;;;;;;5114818;27;20015;-82
2022/08/15 14:09:31;;;;;;;7.50;6.90;;;;;;;;;;5111940;28;20019;-81
2022/08/15 14:11:57;;;;;;;9.35;7.55;;;;;;;;;;5103959;27;20028;-83
2022/08/15 14:14:24;;;;;;;9.50;8.52;;;;;;;;;;5107720;28;20112;-84
2022/08/15 14:16:51;;;;;;;8.07;7.28;;;;;;;;;;5102696;28;20027;-86
2022/08/15 14:19:18;;;;;;;8.65;7.78;;;;;;;;;;5105665;28;20382;-81
2022/08/15 14:21:45;;;;;;;7.93;7.25;;;;;;;;;;5103943;27;20118;-82
2022/08/15 14:24:12;;;;;;;8.20;7.50;;;;;;;;;;5101077;28;20066;-84
2022/08/15 14:26:42;;;;;;;8.23;7.63;;;;;;;;;;5098327;28;20080;-81
2022/08/15 14:29:10;;;;;;;7.95;7.35;;;;;;;;;;5094398;28;20028;-85
2022/08/15 14:31:37;;;;;;;8.10;7.40;;;;;;;;;;5078282;28;20040;-82
2022/08/15 14:34:03;;;;;;;7.93;7.32;;;;;;;;;;5078360;28;20036;-80
2022/08/15 14:36:29;;;;;;;8.30;7.60;;;;;;;;;;5077874;28;20035;-83
2022/08/15 14:38:57;;;;;;;8.43;7.60;;;;;;;;;;5087860;28;20414;-82
2022/08/15 14:41:23;;;;;;;7.95;7.10;;;;;;;;;;5098305;28;20051;-84
2022/08/15 14:43:49;;;;;;;7.57;6.88;;;;;;;;;;5096805;28;20136;-84
2022/08/15 14:46:15;;;;;;;7.53;6.93;;;;;;;;;;5109769;28;20031;-81
2022/08/15 14:48:42;;;;;;;8.27;7.38;;;;;;;;;;5107295;28;20043;-81
2022/08/15 14:51:10;;;;;;;8.15;7.35;;;;;;;;;;5104653;28;20048;-79
2022/08/15 14:53:36;;;;;;;11.65;10.55;;;;;;;;;;5103348;28;20020;-80